sensor_id;sensor_type;location;lat;lon;timestamp;pressure;altitude;pressure_sealevel;temperature;humidity
78839;BME280;68405;47.190;27.558;2024-01-07T00:00:06;98919.38;;;3.93;76.46
78839;BME280;68405;47.190;27.558;2024-01-07T00:02:35;98920.02;;;4.02;76.55
78839;BME280;68405;47.190;27.558;2024-01-07T00:05:07;98921.33;;;4.06;76.46
78839;BME280;68405;47.190;27.558;2024-01-07T00:07:38;98910.02;;;4.11;77.01
78839;BME280;68405;47.190;27.558;2024-01-07T00:10:11;98902.77;;;4.12;76.70
78839;BME280;68405;47.190;27.558;2024-01-07T00:12:42;98894.59;;;4.09;78.26
78839;BME280;68405;47.190;27.558;2024-01-07T00:15:13;98896.86;;;4.08;77.28
78839;BME280;68405;47.190;27.558;2024-01-07T00:17:42;98896.58;;;4.13;76.93
78839;BME280;68405;47.190;27.558;2024-01-07T00:20:12;98893.75;;;4.16;77.10
78839;BME280;68405;47.190;27.558;2024-01-07T00:22:41;98884.38;;;4.12;77.37
78839;BME280;68405;47.190;27.558;2024-01-07T00:25:10;98886.49;;;4.10;76.71
78839;BME280;68405;47.190;27.558;2024-01-07T00:27:41;98891.02;;;4.15;76.29
78839;BME280;68405;47.190;27.558;2024-01-07T00:30:14;98895.57;;;4.19;76.56
78839;BME280;68405;47.190;27.558;2024-01-07T00:32:43;98900.22;;;4.18;76.93
78839;BME280;68405;47.190;27.558;2024-01-07T00:35:12;98908.02;;;4.16;77.05
78839;BME280;68405;47.190;27.558;2024-01-07T00:37:41;98911.80;;;4.16;76.99
78839;BME280;68405;47.190;27.558;2024-01-07T00:40:13;98915.00;;;4.18;76.42
78839;BME280;68405;47.190;27.558;2024-01-07T00:42:42;98908.81;;;4.25;76.40
78839;BME280;68405;47.190;27.558;2024-01-07T00:45:09;98902.83;;;4.31;76.37
78839;BME280;68405;47.190;27.558;2024-01-07T00:47:41;98906.73;;;4.33;76.75
78839;BME280;68405;47.190;27.558;2024-01-07T00:50:13;98908.40;;;4.35;76.21
78839;BME280;68405;47.190;27.558;2024-01-07T00:52:42;98901.22;;;4.41;76.49
78839;BME280;68405;47.190;27.558;2024-01-07T00:55:13;98902.67;;;4.44;76.24
78839;BME280;68405;47.190;27.558;2024-01-07T00:57:42;98898.16;;;4.39;78.24
78839;BME280;68405;47.190;27.558;2024-01-07T01:00:15;98894.93;;;4.31;77.65
78839;BME280;68405;47.190;27.558;2024-01-07T01:02:50;98895.31;;;4.29;77.23
78839;BME280;68405;47.190;27.558;2024-01-07T01:05:21;98899.69;;;4.33;76.73
78839;BME280;68405;47.190;27.558;2024-01-07T01:07:51;98901.99;;;4.37;77.03
78839;BME280;68405;47.190;27.558;2024-01-07T01:10:24;98903.65;;;4.26;79.18
78839;BME280;68405;47.190;27.558;2024-01-07T01:12:54;98891.59;;;4.20;78.60
78839;BME280;68405;47.190;27.558;2024-01-07T01:15:23;98890.73;;;4.19;78.33
78839;BME280;68405;47.190;27.558;2024-01-07T01:17:53;98896.61;;;4.25;76.93
78839;BME280;68405;47.190;27.558;2024-01-07T01:20:27;98903.64;;;4.33;76.62
78839;BME280;68405;47.190;27.558;2024-01-07T01:22:59;98903.55;;;4.37;76.51
78839;BME280;68405;47.190;27.558;2024-01-07T01:25:29;98894.36;;;4.40;76.64
78839;BME280;68405;47.190;27.558;2024-01-07T01:28:01;98893.14;;;4.41;76.49
78839;BME280;68405;47.190;27.558;2024-01-07T01:30:30;98906.73;;;4.47;76.35
78839;BME280;68405;47.190;27.558;2024-01-07T01:32:59;98899.20;;;4.52;76.51
78839;BME280;68405;47.190;27.558;2024-01-07T01:35:30;98898.70;;;4.59;76.46
78839;BME280;68405;47.190;27.558;2024-01-07T01:37:59;98893.27;;;4.56;77.14
78839;BME280;68405;47.190;27.558;2024-01-07T01:40:26;98887.02;;;4.51;77.01
78839;BME280;68405;47.190;27.558;2024-01-07T01:42:55;98884.69;;;4.55;76.60
78839;BME280;68405;47.190;27.558;2024-01-07T01:45:23;98888.98;;;4.62;76.64
78839;BME280;68405;47.190;27.558;2024-01-07T01:47:52;98884.25;;;4.66;76.87
78839;BME280;68405;47.190;27.558;2024-01-07T01:50:21;98880.08;;;4.67;76.84
78839;BME280;68405;47.190;27.558;2024-01-07T01:52:50;98874.48;;;4.71;76.60
78839;BME280;68405;47.190;27.558;2024-01-07T01:55:20;98878.25;;;4.77;76.42
78839;BME280;68405;47.190;27.558;2024-01-07T01:57:49;98875.25;;;4.80;76.64
78839;BME280;68405;47.190;27.558;2024-01-07T02:00:19;98871.66;;;4.86;76.63
78839;BME280;68405;47.190;27.558;2024-01-07T02:02:48;98873.15;;;4.88;76.47
78839;BME280;68405;47.190;27.558;2024-01-07T02:05:17;98871.85;;;4.92;76.57
78839;BME280;68405;47.190;27.558;2024-01-07T02:07:44;98869.73;;;4.94;76.71
78839;BME280;68405;47.190;27.558;2024-01-07T02:10:14;98865.24;;;4.94;76.72
78839;BME280;68405;47.190;27.558;2024-01-07T02:12:42;98861.83;;;4.99;76.54
78839;BME280;68405;47.190;27.558;2024-01-07T02:15:11;98861.72;;;5.03;76.59
78839;BME280;68405;47.190;27.558;2024-01-07T02:17:41;98869.55;;;5.06;76.43
78839;BME280;68405;47.190;27.558;2024-01-07T02:20:11;98870.20;;;5.08;76.48
78839;BME280;68405;47.190;27.558;2024-01-07T02:22:40;98870.73;;;5.13;76.42
78839;BME280;68405;47.190;27.558;2024-01-07T02:25:09;98865.99;;;5.16;76.75
78839;BME280;68405;47.190;27.558;2024-01-07T02:27:38;98865.52;;;5.14;76.76
78839;BME280;68405;47.190;27.558;2024-01-07T02:30:06;98864.93;;;5.17;76.66
78839;BME280;68405;47.190;27.558;2024-01-07T02:32:35;98869.41;;;5.17;76.71
78839;BME280;68405;47.190;27.558;2024-01-07T02:35:07;98864.51;;;5.20;77.00
78839;BME280;68405;47.190;27.558;2024-01-07T02:37:36;98867.08;;;5.21;76.78
78839;BME280;68405;47.190;27.558;2024-01-07T02:40:06;98872.68;;;5.23;77.05
78839;BME280;68405;47.190;27.558;2024-01-07T02:42:35;98872.60;;;5.26;76.86
78839;BME280;68405;47.190;27.558;2024-01-07T02:45:06;98870.27;;;5.29;76.78
78839;BME280;68405;47.190;27.558;2024-01-07T02:47:34;98863.55;;;5.35;76.88
78839;BME280;68405;47.190;27.558;2024-01-07T02:50:06;98866.55;;;5.32;76.67
78839;BME280;68405;47.190;27.558;2024-01-07T02:52:37;98867.66;;;5.30;76.68
78839;BME280;68405;47.190;27.558;2024-01-07T02:55:10;98870.16;;;5.27;76.42
78839;BME280;68405;47.190;27.558;2024-01-07T02:57:41;98866.41;;;5.20;76.38
78839;BME280;68405;47.190;27.558;2024-01-07T03:00:10;98863.06;;;5.10;76.58
78839;BME280;68405;47.190;27.558;2024-01-07T03:02:39;98861.73;;;5.09;76.38
78839;BME280;68405;47.190;27.558;2024-01-07T03:05:09;98862.83;;;5.07;76.63
78839;BME280;68405;47.190;27.558;2024-01-07T03:07:39;98863.10;;;5.03;76.32
78839;BME280;68405;47.190;27.558;2024-01-07T03:10:09;98870.77;;;5.00;76.33
78839;BME280;68405;47.190;27.558;2024-01-07T03:12:38;98877.08;;;4.95;76.40
78839;BME280;68405;47.190;27.558;2024-01-07T03:15:08;98878.73;;;4.91;76.29
78839;BME280;68405;47.190;27.558;2024-01-07T03:17:36;98877.23;;;4.90;76.21
78839;BME280;68405;47.190;27.558;2024-01-07T03:20:05;98878.19;;;4.86;76.06
78839;BME280;68405;47.190;27.558;2024-01-07T03:22:34;98883.13;;;4.81;76.17
78839;BME280;68405;47.190;27.558;2024-01-07T03:25:04;98883.10;;;4.76;76.09
78839;BME280;68405;47.190;27.558;2024-01-07T03:27:33;98885.14;;;4.70;76.13
78839;BME280;68405;47.190;27.558;2024-01-07T03:30:02;98881.30;;;4.66;76.38
78839;BME280;68405;47.190;27.558;2024-01-07T03:32:32;98881.77;;;4.61;76.52
78839;BME280;68405;47.190;27.558;2024-01-07T03:35:00;98887.61;;;4.55;76.34
78839;BME280;68405;47.190;27.558;2024-01-07T03:37:28;98893.17;;;4.52;77.10
78839;BME280;68405;47.190;27.558;2024-01-07T03:39:56;98886.96;;;4.54;77.04
78839;BME280;68405;47.190;27.558;2024-01-07T03:42:25;98879.27;;;4.52;77.46
78839;BME280;68405;47.190;27.558;2024-01-07T03:44:52;98882.70;;;4.52;77.13
78839;BME280;68405;47.190;27.558;2024-01-07T03:47:21;98883.23;;;4.53;77.23
78839;BME280;68405;47.190;27.558;2024-01-07T03:49:50;98888.77;;;4.57;76.84
78839;BME280;68405;47.190;27.558;2024-01-07T03:52:19;98883.16;;;4.61;76.72
78839;BME280;68405;47.190;27.558;2024-01-07T03:54:47;98880.80;;;4.66;76.65
78839;BME280;68405;47.190;27.558;2024-01-07T03:57:16;98888.21;;;4.71;76.50
78839;BME280;68405;47.190;27.558;2024-01-07T03:59:45;98893.90;;;4.78;76.74
78839;BME280;68405;47.190;27.558;2024-01-07T04:02:14;98903.15;;;4.79;76.78
78839;BME280;68405;47.190;27.558;2024-01-07T04:04:46;98907.69;;;4.71;76.62
78839;BME280;68405;47.190;27.558;2024-01-07T04:07:15;98916.52;;;4.74;76.79
78839;BME280;68405;47.190;27.558;2024-01-07T04:09:49;98917.18;;;4.75;76.92
78839;BME280;68405;47.190;27.558;2024-01-07T04:12:17;98908.58;;;4.76;77.69
78839;BME280;68405;47.190;27.558;2024-01-07T04:14:46;98907.22;;;4.75;77.68
78839;BME280;68405;47.190;27.558;2024-01-07T04:17:15;98912.65;;;4.77;77.17
78839;BME280;68405;47.190;27.558;2024-01-07T04:19:44;98912.36;;;4.76;77.86
78839;BME280;68405;47.190;27.558;2024-01-07T04:22:12;98912.47;;;4.78;77.13
78839;BME280;68405;47.190;27.558;2024-01-07T04:24:41;98912.35;;;4.76;77.30
78839;BME280;68405;47.190;27.558;2024-01-07T04:27:10;98917.92;;;4.73;77.31
78839;BME280;68405;47.190;27.558;2024-01-07T04:29:38;98924.66;;;4.72;77.58
78839;BME280;68405;47.190;27.558;2024-01-07T04:32:06;98934.20;;;4.69;77.55
78839;BME280;68405;47.190;27.558;2024-01-07T04:34:35;98934.19;;;4.63;77.58
78839;BME280;68405;47.190;27.558;2024-01-07T04:37:03;98923.90;;;4.62;77.54
78839;BME280;68405;47.190;27.558;2024-01-07T04:39:32;98918.96;;;4.60;77.76
78839;BME280;68405;47.190;27.558;2024-01-07T04:42:01;98917.06;;;4.60;77.48
78839;BME280;68405;47.190;27.558;2024-01-07T04:44:30;98913.14;;;4.59;77.63
78839;BME280;68405;47.190;27.558;2024-01-07T04:46:59;98907.23;;;4.62;77.71
78839;BME280;68405;47.190;27.558;2024-01-07T04:49:26;98901.77;;;4.66;78.63
78839;BME280;68405;47.190;27.558;2024-01-07T04:51:55;98896.73;;;4.68;78.21
78839;BME280;68405;47.190;27.558;2024-01-07T04:54:23;98889.91;;;4.72;77.94
78839;BME280;68405;47.190;27.558;2024-01-07T04:56:51;98881.36;;;4.71;78.15
78839;BME280;68405;47.190;27.558;2024-01-07T04:59:21;98872.98;;;4.68;78.45
78839;BME280;68405;47.190;27.558;2024-01-07T05:01:50;98876.23;;;4.76;77.98
78839;BME280;68405;47.190;27.558;2024-01-07T05:04:18;98873.61;;;4.83;77.69
78839;BME280;68405;47.190;27.558;2024-01-07T05:06:46;98869.23;;;4.87;77.66
78839;BME280;68405;47.190;27.558;2024-01-07T05:09:15;98873.23;;;4.84;79.18
78839;BME280;68405;47.190;27.558;2024-01-07T05:11:44;98867.80;;;4.76;79.46
78839;BME280;68405;47.190;27.558;2024-01-07T05:14:11;98866.38;;;4.71;78.80
78839;BME280;68405;47.190;27.558;2024-01-07T05:16:40;98867.41;;;4.77;78.43
78839;BME280;68405;47.190;27.558;2024-01-07T05:19:09;98871.90;;;4.82;78.09
78839;BME280;68405;47.190;27.558;2024-01-07T05:21:38;98873.48;;;4.89;77.89
78839;BME280;68405;47.190;27.558;2024-01-07T05:24:07;98877.80;;;4.94;78.06
78839;BME280;68405;47.190;27.558;2024-01-07T05:26:40;98881.55;;;4.95;77.90
78839;BME280;68405;47.190;27.558;2024-01-07T05:29:09;98881.43;;;5.00;77.87
78839;BME280;68405;47.190;27.558;2024-01-07T05:31:39;98867.35;;;5.05;78.04
78839;BME280;68405;47.190;27.558;2024-01-07T05:34:08;98871.59;;;5.07;78.05
78839;BME280;68405;47.190;27.558;2024-01-07T05:36:37;98878.58;;;5.10;77.98
78839;BME280;68405;47.190;27.558;2024-01-07T05:39:05;98871.52;;;5.09;77.95
78839;BME280;68405;47.190;27.558;2024-01-07T05:41:37;98868.69;;;5.12;77.93
78839;BME280;68405;47.190;27.558;2024-01-07T05:44:09;98872.69;;;5.16;77.97
78839;BME280;68405;47.190;27.558;2024-01-07T05:46:49;98878.15;;;5.18;77.80
78839;BME280;68405;47.190;27.558;2024-01-07T05:49:18;98889.52;;;5.18;77.87
78839;BME280;68405;47.190;27.558;2024-01-07T05:51:47;98899.09;;;5.21;77.96
78839;BME280;68405;47.190;27.558;2024-01-07T05:54:16;98893.16;;;5.17;78.22
78839;BME280;68405;47.190;27.558;2024-01-07T05:56:45;98892.32;;;5.16;77.90
78839;BME280;68405;47.190;27.558;2024-01-07T05:59:17;98881.48;;;5.16;77.92
78839;BME280;68405;47.190;27.558;2024-01-07T06:01:46;98873.89;;;5.17;77.85
78839;BME280;68405;47.190;27.558;2024-01-07T06:04:15;98873.73;;;5.16;77.72
78839;BME280;68405;47.190;27.558;2024-01-07T06:06:44;98868.21;;;5.17;77.81
78839;BME280;68405;47.190;27.558;2024-01-07T06:09:11;98867.77;;;5.14;77.88
78839;BME280;68405;47.190;27.558;2024-01-07T06:11:40;98862.72;;;5.16;78.04
78839;BME280;68405;47.190;27.558;2024-01-07T06:14:09;98865.95;;;5.17;77.82
78839;BME280;68405;47.190;27.558;2024-01-07T06:16:38;98868.48;;;5.13;80.95
78839;BME280;68405;47.190;27.558;2024-01-07T06:19:07;98866.86;;;5.04;84.27
78839;BME280;68405;47.190;27.558;2024-01-07T06:21:36;98864.21;;;5.00;84.39
78839;BME280;68405;47.190;27.558;2024-01-07T06:24:05;98868.63;;;5.02;83.92
78839;BME280;68405;47.190;27.558;2024-01-07T06:26:36;98871.05;;;5.08;82.86
78839;BME280;68405;47.190;27.558;2024-01-07T06:29:03;98863.95;;;5.09;85.56
78839;BME280;68405;47.190;27.558;2024-01-07T06:31:32;98864.06;;;5.05;84.86
78839;BME280;68405;47.190;27.558;2024-01-07T06:34:05;98861.21;;;5.08;82.32
78839;BME280;68405;47.190;27.558;2024-01-07T06:36:34;98863.53;;;5.18;81.91
78839;BME280;68405;47.190;27.558;2024-01-07T06:39:02;98861.55;;;5.27;82.03
78839;BME280;68405;47.190;27.558;2024-01-07T06:41:33;98861.90;;;5.26;83.49
78839;BME280;68405;47.190;27.558;2024-01-07T06:44:00;98860.00;;;5.33;81.15
78839;BME280;68405;47.190;27.558;2024-01-07T06:46:29;98858.36;;;5.42;80.76
78839;BME280;68405;47.190;27.558;2024-01-07T06:48:57;98860.71;;;5.49;80.39
78839;BME280;68405;47.190;27.558;2024-01-07T06:51:26;98856.52;;;5.51;81.43
78839;BME280;68405;47.190;27.558;2024-01-07T06:53:55;98863.40;;;5.46;82.24
78839;BME280;68405;47.190;27.558;2024-01-07T06:56:22;98865.20;;;5.44;82.17
78839;BME280;68405;47.190;27.558;2024-01-07T06:58:52;98870.13;;;5.45;80.69
78839;BME280;68405;47.190;27.558;2024-01-07T07:01:22;98871.86;;;5.51;80.98
78839;BME280;68405;47.190;27.558;2024-01-07T07:03:51;98866.75;;;5.55;80.62
78839;BME280;68405;47.190;27.558;2024-01-07T07:06:20;98871.55;;;5.61;80.83
78839;BME280;68405;47.190;27.558;2024-01-07T07:08:47;98875.50;;;5.62;81.05
78839;BME280;68405;47.190;27.558;2024-01-07T07:11:16;98877.27;;;5.60;80.98
78839;BME280;68405;47.190;27.558;2024-01-07T07:13:45;98879.09;;;5.62;80.69
78839;BME280;68405;47.190;27.558;2024-01-07T07:16:13;98873.89;;;5.63;80.44
78839;BME280;68405;47.190;27.558;2024-01-07T07:18:42;98876.08;;;5.60;81.66
78839;BME280;68405;47.190;27.558;2024-01-07T07:21:10;98875.11;;;5.57;80.95
78839;BME280;68405;47.190;27.558;2024-01-07T07:23:38;98877.60;;;5.61;80.60
78839;BME280;68405;47.190;27.558;2024-01-07T07:26:07;98877.68;;;5.64;80.43
78839;BME280;68405;47.190;27.558;2024-01-07T07:28:39;98880.42;;;5.64;80.86
78839;BME280;68405;47.190;27.558;2024-01-07T07:31:08;98873.78;;;5.56;82.66
78839;BME280;68405;47.190;27.558;2024-01-07T07:33:40;98871.23;;;5.43;83.91
78839;BME280;68405;47.190;27.558;2024-01-07T07:36:12;98867.66;;;5.36;83.68
78839;BME280;68405;47.190;27.558;2024-01-07T07:38:41;98870.05;;;5.37;82.72
78839;BME280;68405;47.190;27.558;2024-01-07T07:41:10;98877.33;;;5.35;83.36
78839;BME280;68405;47.190;27.558;2024-01-07T07:43:39;98876.29;;;5.35;82.38
78839;BME280;68405;47.190;27.558;2024-01-07T07:46:08;98872.77;;;5.32;82.55
78839;BME280;68405;47.190;27.558;2024-01-07T07:48:37;98870.02;;;5.26;83.35
78839;BME280;68405;47.190;27.558;2024-01-07T07:51:06;98868.32;;;5.25;82.50
78839;BME280;68405;47.190;27.558;2024-01-07T07:53:35;98862.21;;;5.22;82.65
78839;BME280;68405;47.190;27.558;2024-01-07T07:56:08;98858.62;;;5.15;83.25
78839;BME280;68405;47.190;27.558;2024-01-07T07:58:37;98858.05;;;5.05;84.70
78839;BME280;68405;47.190;27.558;2024-01-07T08:01:07;98864.46;;;4.97;85.55
78839;BME280;68405;47.190;27.558;2024-01-07T08:03:36;98863.08;;;4.97;84.38
78839;BME280;68405;47.190;27.558;2024-01-07T08:06:06;98864.38;;;4.88;85.44
78839;BME280;68405;47.190;27.558;2024-01-07T08:08:34;98864.25;;;4.86;85.40
78839;BME280;68405;47.190;27.558;2024-01-07T08:11:02;98861.58;;;4.83;85.06
78839;BME280;68405;47.190;27.558;2024-01-07T08:13:35;98863.58;;;4.85;83.75
78839;BME280;68405;47.190;27.558;2024-01-07T08:16:06;98860.89;;;4.83;85.31
78839;BME280;68405;47.190;27.558;2024-01-07T08:18:35;98860.02;;;4.84;83.99
78839;BME280;68405;47.190;27.558;2024-01-07T08:21:02;98857.95;;;4.71;86.16
78839;BME280;68405;47.190;27.558;2024-01-07T08:23:31;98856.36;;;4.73;84.11
78839;BME280;68405;47.190;27.558;2024-01-07T08:26:00;98860.81;;;4.74;84.67
78839;BME280;68405;47.190;27.558;2024-01-07T08:28:30;98858.81;;;4.72;84.46
78839;BME280;68405;47.190;27.558;2024-01-07T08:30:59;98857.69;;;4.68;84.37
78839;BME280;68405;47.190;27.558;2024-01-07T08:33:27;98857.89;;;4.67;84.09
78839;BME280;68405;47.190;27.558;2024-01-07T08:35:56;98859.02;;;4.57;84.99
78839;BME280;68405;47.190;27.558;2024-01-07T08:38:25;98862.79;;;4.51;85.22
78839;BME280;68405;47.190;27.558;2024-01-07T08:40:54;98866.50;;;4.47;85.38
78839;BME280;68405;47.190;27.558;2024-01-07T08:43:23;98866.48;;;4.42;86.13
78839;BME280;68405;47.190;27.558;2024-01-07T08:45:53;98863.06;;;4.41;86.38
78839;BME280;68405;47.190;27.558;2024-01-07T08:48:21;98859.34;;;4.38;86.22
78839;BME280;68405;47.190;27.558;2024-01-07T08:50:51;98855.29;;;4.42;85.06
78839;BME280;68405;47.190;27.558;2024-01-07T08:53:20;98855.83;;;4.35;86.16
78839;BME280;68405;47.190;27.558;2024-01-07T08:55:50;98851.11;;;4.30;86.35
78839;BME280;68405;47.190;27.558;2024-01-07T08:58:19;98845.19;;;4.33;85.94
78839;BME280;68405;47.190;27.558;2024-01-07T09:00:48;98839.91;;;4.31;85.92
78839;BME280;68405;47.190;27.558;2024-01-07T09:03:17;98831.87;;;4.30;86.30
78839;BME280;68405;47.190;27.558;2024-01-07T09:05:46;98827.36;;;4.32;85.28
78839;BME280;68405;47.190;27.558;2024-01-07T09:08:15;98827.82;;;4.27;85.58
78839;BME280;68405;47.190;27.558;2024-01-07T09:10:47;98827.06;;;4.30;85.69
78839;BME280;68405;47.190;27.558;2024-01-07T09:13:18;98826.63;;;4.27;86.04
78839;BME280;68405;47.190;27.558;2024-01-07T09:15:47;98831.64;;;4.25;85.53
78839;BME280;68405;47.190;27.558;2024-01-07T09:18:16;98836.52;;;4.30;84.56
78839;BME280;68405;47.190;27.558;2024-01-07T09:20:48;98836.37;;;4.29;84.97
78839;BME280;68405;47.190;27.558;2024-01-07T09:23:18;98833.16;;;4.27;84.76
78839;BME280;68405;47.190;27.558;2024-01-07T09:25:47;98828.49;;;4.21;84.75
78839;BME280;68405;47.190;27.558;2024-01-07T09:28:17;98822.25;;;4.23;83.99
78839;BME280;68405;47.190;27.558;2024-01-07T09:30:44;98820.05;;;4.22;84.29
78839;BME280;68405;47.190;27.558;2024-01-07T09:33:13;98819.34;;;4.23;83.30
78839;BME280;68405;47.190;27.558;2024-01-07T09:35:43;98817.51;;;4.20;83.79
78839;BME280;68405;47.190;27.558;2024-01-07T09:38:11;98816.87;;;4.05;84.75
78839;BME280;68405;47.190;27.558;2024-01-07T09:40:40;98819.34;;;4.02;84.65
78839;BME280;68405;47.190;27.558;2024-01-07T09:43:10;98820.05;;;4.01;83.93
78839;BME280;68405;47.190;27.558;2024-01-07T09:45:44;98809.96;;;3.99;84.07
78839;BME280;68405;47.190;27.558;2024-01-07T09:48:14;98803.27;;;3.98;83.41
78839;BME280;68405;47.190;27.558;2024-01-07T09:50:43;98805.63;;;3.94;83.70
78839;BME280;68405;47.190;27.558;2024-01-07T09:53:16;98809.46;;;3.92;83.48
78839;BME280;68405;47.190;27.558;2024-01-07T09:55:55;98804.29;;;3.93;83.56
78839;BME280;68405;47.190;27.558;2024-01-07T09:58:27;98799.20;;;3.90;83.16
78839;BME280;68405;47.190;27.558;2024-01-07T10:01:06;98798.66;;;3.91;82.81
78839;BME280;68405;47.190;27.558;2024-01-07T10:03:38;98795.36;;;3.92;82.67
78839;BME280;68405;47.190;27.558;2024-01-07T10:06:05;98787.66;;;3.91;82.80
78839;BME280;68405;47.190;27.558;2024-01-07T10:08:35;98785.94;;;3.78;84.13
78839;BME280;68405;47.190;27.558;2024-01-07T10:11:04;98784.41;;;3.77;83.98
78839;BME280;68405;47.190;27.558;2024-01-07T10:13:38;98777.92;;;3.68;84.33
78839;BME280;68405;47.190;27.558;2024-01-07T10:16:08;98773.42;;;3.62;84.15
78839;BME280;68405;47.190;27.558;2024-01-07T10:18:37;98774.63;;;3.62;83.29
78839;BME280;68405;47.190;27.558;2024-01-07T10:21:07;98775.07;;;3.58;83.92
78839;BME280;68405;47.190;27.558;2024-01-07T10:23:36;98773.91;;;3.49;84.51
78839;BME280;68405;47.190;27.558;2024-01-07T10:26:05;98773.38;;;3.50;84.00
78839;BME280;68405;47.190;27.558;2024-01-07T10:28:35;98779.00;;;3.44;84.73
78839;BME280;68405;47.190;27.558;2024-01-07T10:31:06;98774.02;;;3.36;85.00
78839;BME280;68405;47.190;27.558;2024-01-07T10:33:35;98771.04;;;3.32;85.13
78839;BME280;68405;47.190;27.558;2024-01-07T10:36:06;98769.09;;;3.28;85.23
78839;BME280;68405;47.190;27.558;2024-01-07T10:38:36;98777.55;;;3.25;85.35
78839;BME280;68405;47.190;27.558;2024-01-07T10:41:05;98772.46;;;3.22;85.05
78839;BME280;68405;47.190;27.558;2024-01-07T10:43:42;98769.52;;;3.23;84.70
78839;BME280;68405;47.190;27.558;2024-01-07T10:46:16;98776.63;;;3.20;85.50
78839;BME280;68405;47.190;27.558;2024-01-07T10:48:53;98769.39;;;3.21;84.64
78839;BME280;68405;47.190;27.558;2024-01-07T10:51:23;98768.30;;;3.32;84.93
78839;BME280;68405;47.190;27.558;2024-01-07T10:53:53;98765.02;;;3.32;83.94
78839;BME280;68405;47.190;27.558;2024-01-07T10:56:29;98761.13;;;3.30;83.82
78839;BME280;68405;47.190;27.558;2024-01-07T10:59:01;98756.77;;;3.19;85.24
78839;BME280;68405;47.190;27.558;2024-01-07T11:01:32;98755.44;;;3.16;84.29
78839;BME280;68405;47.190;27.558;2024-01-07T11:04:06;98756.98;;;3.17;84.15
78839;BME280;68405;47.190;27.558;2024-01-07T11:06:48;98760.65;;;3.13;84.66
78839;BME280;68405;47.190;27.558;2024-01-07T11:09:26;98757.54;;;3.15;84.63
78839;BME280;68405;47.190;27.558;2024-01-07T11:12:00;98755.86;;;3.13;84.75
78839;BME280;68405;47.190;27.558;2024-01-07T11:14:41;98759.52;;;3.11;85.10
78839;BME280;68405;47.190;27.558;2024-01-07T11:17:13;98756.50;;;3.15;84.62
78839;BME280;68405;47.190;27.558;2024-01-07T11:19:51;98764.81;;;3.12;85.61
78839;BME280;68405;47.190;27.558;2024-01-07T11:22:24;98766.49;;;3.05;85.52
78839;BME280;68405;47.190;27.558;2024-01-07T11:24:57;98772.38;;;3.11;84.49
78839;BME280;68405;47.190;27.558;2024-01-07T11:27:28;98773.67;;;3.14;84.47
78839;BME280;68405;47.190;27.558;2024-01-07T11:30:02;98767.86;;;3.13;85.00
78839;BME280;68405;47.190;27.558;2024-01-07T11:32:35;98763.36;;;3.07;85.74
78839;BME280;68405;47.190;27.558;2024-01-07T11:35:06;98763.96;;;3.03;85.55
78839;BME280;68405;47.190;27.558;2024-01-07T11:37:35;98763.96;;;2.96;86.20
78839;BME280;68405;47.190;27.558;2024-01-07T11:40:08;98760.43;;;2.92;86.28
78839;BME280;68405;47.190;27.558;2024-01-07T11:42:39;98755.58;;;2.94;85.57
78839;BME280;68405;47.190;27.558;2024-01-07T11:45:09;98753.69;;;2.94;85.79
78839;BME280;68405;47.190;27.558;2024-01-07T11:47:38;98757.63;;;2.95;85.44
78839;BME280;68405;47.190;27.558;2024-01-07T11:50:08;98756.77;;;2.95;85.76
78839;BME280;68405;47.190;27.558;2024-01-07T11:52:38;98755.12;;;2.92;86.49
78839;BME280;68405;47.190;27.558;2024-01-07T11:55:08;98753.08;;;2.91;86.01
78839;BME280;68405;47.190;27.558;2024-01-07T11:57:37;98754.66;;;2.89;86.34
78839;BME280;68405;47.190;27.558;2024-01-07T12:00:08;98754.67;;;2.89;85.99
78839;BME280;68405;47.190;27.558;2024-01-07T12:02:37;98756.98;;;2.85;86.22
78839;BME280;68405;47.190;27.558;2024-01-07T12:05:07;98761.80;;;2.84;85.62
78839;BME280;68405;47.190;27.558;2024-01-07T12:07:36;98767.06;;;2.86;85.18
78839;BME280;68405;47.190;27.558;2024-01-07T12:10:09;98764.70;;;2.77;86.01
78839;BME280;68405;47.190;27.558;2024-01-07T12:12:41;98758.71;;;2.76;86.36
78839;BME280;68405;47.190;27.558;2024-01-07T12:15:11;98754.23;;;2.76;86.56
78839;BME280;68405;47.190;27.558;2024-01-07T12:17:58;98753.52;;;2.78;86.33
78839;BME280;68405;47.190;27.558;2024-01-07T12:20:34;98746.36;;;2.76;86.42
78839;BME280;68405;47.190;27.558;2024-01-07T12:23:09;98741.23;;;2.75;86.35
78839;BME280;68405;47.190;27.558;2024-01-07T12:25:39;98750.46;;;2.77;86.32
78839;BME280;68405;47.190;27.558;2024-01-07T12:28:08;98750.50;;;2.83;85.40
78839;BME280;68405;47.190;27.558;2024-01-07T12:30:38;98747.48;;;2.80;85.69
78839;BME280;68405;47.190;27.558;2024-01-07T12:33:07;98737.21;;;2.79;85.86
78839;BME280;68405;47.190;27.558;2024-01-07T12:35:36;98727.77;;;2.80;85.60
78839;BME280;68405;47.190;27.558;2024-01-07T12:38:05;98720.45;;;2.77;85.47
78839;BME280;68405;47.190;27.558;2024-01-07T12:40:35;98712.63;;;2.82;84.68
78839;BME280;68405;47.190;27.558;2024-01-07T12:43:05;98710.66;;;2.85;84.66
78839;BME280;68405;47.190;27.558;2024-01-07T12:45:34;98706.31;;;2.80;85.19
78839;BME280;68405;47.190;27.558;2024-01-07T12:48:04;98706.31;;;2.73;85.16
78839;BME280;68405;47.190;27.558;2024-01-07T12:50:33;98702.23;;;2.56;86.01
78839;BME280;68405;47.190;27.558;2024-01-07T12:53:02;98704.61;;;2.55;85.51
78839;BME280;68405;47.190;27.558;2024-01-07T12:55:32;98708.81;;;2.52;86.07
78839;BME280;68405;47.190;27.558;2024-01-07T12:58:01;98711.41;;;2.42;86.56
78839;BME280;68405;47.190;27.558;2024-01-07T13:00:29;98710.84;;;2.37;86.49
78839;BME280;68405;47.190;27.558;2024-01-07T13:02:58;98719.12;;;2.33;86.60
78839;BME280;68405;47.190;27.558;2024-01-07T13:05:27;98719.22;;;2.37;85.92
78839;BME280;68405;47.190;27.558;2024-01-07T13:07:56;98722.21;;;2.41;85.79
78839;BME280;68405;47.190;27.558;2024-01-07T13:10:25;98723.08;;;2.41;85.58
78839;BME280;68405;47.190;27.558;2024-01-07T13:12:55;98725.73;;;2.37;85.81